createdAt,value
2018-03-26T09:39:48.442Z,17.30
2018-03-26T09:42:16.572Z,16.90
2018-03-26T09:44:44.695Z,18.10
2018-03-26T09:47:12.840Z,17.50
2018-03-26T09:49:40.995Z,18.00
2018-03-26T09:52:09.112Z,18.03
2018-03-26T09:54:37.237Z,18.13
2018-03-26T09:57:05.358Z,17.53
2018-03-26T09:59:33.469Z,18.50
2018-03-26T10:02:01.675Z,17.37
2018-03-26T10:04:29.886Z,17.00
2018-03-26T10:06:58.133Z,18.40
2018-03-26T10:09:26.351Z,17.50
2018-03-26T10:11:54.583Z,18.30
2018-03-26T10:14:22.823Z,18.10
2018-03-26T10:16:51.740Z,17.93
2018-03-26T10:19:19.875Z,18.57
2018-03-26T10:21:47.992Z,18.27
2018-03-26T10:24:16.109Z,16.73
2018-03-26T10:26:44.577Z,17.10
2018-03-26T10:29:12.712Z,18.30
2018-03-26T10:31:40.826Z,18.13
2018-03-26T10:34:08.922Z,18.80
2018-03-26T10:36:37.044Z,18.07
2018-03-26T10:39:05.178Z,17.73
2018-03-26T10:41:33.327Z,18.07
2018-03-26T10:44:01.468Z,17.93
2018-03-26T10:46:29.587Z,18.80
2018-03-26T10:48:58.447Z,17.13
2018-03-26T10:51:26.769Z,17.53
2018-03-26T10:53:54.921Z,18.57
2018-03-26T10:56:23.039Z,18.00
2018-03-26T10:58:51.158Z,17.20
2018-03-26T11:01:19.257Z,17.30
2018-03-26T11:03:47.701Z,18.07
2018-03-26T11:06:15.811Z,18.53
2018-03-26T11:08:43.939Z,17.00
2018-03-26T11:11:12.061Z,18.43
2018-03-26T11:13:40.171Z,16.60
2018-03-26T11:16:08.311Z,17.20
2018-03-26T11:18:36.441Z,17.83
2018-03-26T11:21:05.134Z,18.20
2018-03-26T11:23:33.273Z,18.13
2018-03-26T11:26:01.415Z,18.33
2018-03-26T11:28:29.545Z,18.47
2018-03-26T11:30:57.703Z,18.43
2018-03-26T11:33:25.836Z,17.70
2018-03-26T11:35:53.967Z,18.83
2018-03-26T11:38:22.071Z,18.30
2018-03-26T11:40:50.205Z,17.63
2018-03-26T11:43:18.338Z,18.30
2018-03-26T11:45:46.461Z,19.03
2018-03-26T11:48:14.591Z,18.40
2018-03-26T11:50:42.716Z,17.47
2018-03-26T11:53:11.636Z,17.83
2018-03-26T11:55:39.764Z,18.30
2018-03-26T11:58:07.881Z,18.37
2018-03-26T12:00:35.978Z,18.60
2018-03-26T12:03:04.104Z,19.07
2018-03-26T12:05:32.994Z,18.07
2018-03-26T12:08:01.111Z,17.47
2018-03-26T12:10:29.848Z,18.00
2018-03-26T12:12:57.976Z,17.80
2018-03-26T12:15:26.130Z,18.80
2018-03-26T12:17:54.230Z,19.77
2018-03-26T12:20:40.160Z,19.13
2018-03-26T12:26:18.756Z,18.77
2018-03-26T12:29:04.419Z,18.37
2018-03-26T12:31:32.546Z,17.60
2018-03-26T12:34:18.227Z,18.00
2018-03-26T12:36:46.373Z,17.13
2018-03-26T12:39:14.458Z,18.77
2018-03-26T12:41:42.593Z,17.53
2018-03-26T12:44:10.715Z,17.20
2018-03-26T12:46:45.464Z,18.53
2018-03-26T12:49:13.685Z,17.13
2018-03-26T12:51:59.547Z,17.33
2018-03-26T12:54:27.679Z,17.60
2018-03-26T13:00:07.348Z,17.63
2018-03-26T13:02:35.465Z,17.83
2018-03-26T13:05:03.615Z,16.87
2018-03-26T13:07:31.792Z,18.33
2018-03-26T13:09:59.948Z,18.57
2018-03-26T13:12:28.089Z,17.43
2018-03-26T13:14:56.821Z,18.90
2018-03-26T13:17:24.937Z,18.93
2018-03-26T13:19:53.152Z,17.27
2018-03-26T13:22:21.329Z,17.80
2018-03-26T13:24:49.584Z,17.73
2018-03-26T13:27:17.896Z,18.20
2018-03-26T13:29:46.049Z,16.87
2018-03-26T13:32:14.942Z,16.53
2018-03-26T13:34:43.082Z,18.03
2018-03-26T13:37:11.194Z,18.00
2018-03-26T13:39:39.332Z,18.63
2018-03-26T13:42:08.230Z,19.10
2018-03-26T13:44:36.517Z,17.80
2018-03-26T13:47:04.747Z,19.27
2018-03-26T13:49:33.011Z,19.37
2018-03-26T13:52:01.150Z,19.43
2018-03-26T13:54:29.256Z,19.93
2018-03-26T13:56:57.977Z,18.77
2018-03-26T13:59:26.350Z,19.47
2018-03-26T14:01:54.474Z,20.97
2018-03-26T14:04:22.637Z,20.57
2018-03-26T14:06:50.777Z,21.50
2018-03-26T14:12:50.077Z,20.13
2018-03-26T14:15:36.339Z,18.37
2018-03-26T14:18:09.426Z,18.33
2018-03-26T14:20:37.617Z,18.60
2018-03-26T14:23:05.727Z,19.00
2018-03-26T14:25:33.845Z,18.20
2018-03-26T14:28:02.020Z,20.47
2018-03-26T14:30:30.204Z,19.53
2018-03-26T14:32:58.509Z,20.17
2018-03-26T14:38:23.198Z,20.27
2018-03-26T14:40:51.306Z,19.73
2018-03-26T14:43:19.879Z,19.67
2018-03-26T14:45:48.016Z,19.07
2018-03-26T14:48:16.156Z,20.13
2018-03-26T14:50:44.266Z,20.50
2018-03-26T14:53:12.387Z,19.50
2018-03-26T14:55:41.282Z,21.23
2018-03-26T14:58:09.426Z,19.47
2018-03-26T15:00:37.572Z,19.83
2018-03-26T15:03:05.709Z,18.20
2018-03-26T15:05:33.830Z,19.10
2018-03-26T15:08:01.961Z,19.97
2018-03-26T15:10:30.104Z,20.23
2018-03-26T15:12:58.290Z,18.77
2018-03-26T15:15:26.533Z,20.13
2018-03-26T15:17:54.987Z,18.47
2018-03-26T15:20:23.964Z,19.33
2018-03-26T15:22:52.007Z,20.43
2018-03-26T15:25:20.183Z,20.57
2018-03-26T15:27:48.262Z,19.80
2018-03-26T15:30:16.740Z,18.23
2018-03-26T15:32:45.639Z,20.07
2018-03-26T15:35:14.577Z,22.50
2018-03-26T15:37:43.165Z,22.20
2018-03-26T15:40:11.271Z,19.40
2018-03-26T15:42:39.406Z,19.57
2018-03-26T15:45:07.601Z,18.47
2018-03-26T15:47:36.327Z,18.93
2018-03-26T15:50:04.430Z,19.83
2018-03-26T15:52:32.564Z,21.57
2018-03-26T15:55:01.450Z,21.47
2018-03-26T15:57:29.612Z,21.23
2018-03-26T15:59:57.811Z,20.80
2018-03-26T16:02:31.343Z,20.90
2018-03-26T16:04:59.480Z,21.70
2018-03-26T16:07:27.597Z,22.73
2018-03-26T16:09:56.075Z,22.17
2018-03-26T16:12:24.234Z,21.07
2018-03-26T16:14:52.380Z,22.40
2018-03-26T16:17:22.896Z,21.27
2018-03-26T16:19:51.333Z,20.83
2018-03-26T16:22:19.452Z,21.53
2018-03-26T16:24:47.885Z,21.73
2018-03-26T16:27:16.325Z,20.80
2018-03-26T16:29:44.482Z,22.27
2018-03-26T16:32:12.888Z,22.23
2018-03-26T16:34:41.007Z,22.37
2018-03-26T16:37:09.137Z,22.57
2018-03-26T16:39:37.287Z,22.07
2018-03-26T16:45:24.828Z,24.80
2018-03-26T16:50:54.959Z,24.93
2018-03-26T16:53:23.091Z,23.97
2018-03-26T16:55:51.209Z,25.27
2018-03-26T16:58:19.350Z,24.60
2018-03-26T17:00:47.568Z,24.73
2018-03-26T17:03:15.848Z,22.40
2018-03-26T17:05:44.005Z,24.63
2018-03-26T17:08:12.625Z,18.53
2018-03-26T17:10:40.754Z,20.73
2018-03-26T17:13:08.877Z,23.97
2018-03-26T17:15:37.110Z,22.80
2018-03-26T17:18:05.300Z,22.13
2018-03-26T17:20:33.419Z,20.43
2018-03-26T17:23:01.592Z,21.90
2018-03-26T17:25:30.380Z,25.00
2018-03-26T17:27:58.710Z,23.87
2018-03-26T17:30:26.874Z,23.73
2018-03-26T17:32:55.044Z,22.03
2018-03-26T17:35:23.428Z,22.67
2018-03-26T17:37:51.562Z,21.60
2018-03-26T17:40:19.660Z,23.57
2018-03-26T17:42:47.786Z,22.37
2018-03-26T17:45:15.985Z,24.57
2018-03-26T17:47:44.084Z,21.20
2018-03-26T17:50:12.208Z,20.43
2018-03-26T17:52:40.314Z,23.47
2018-03-26T17:55:08.443Z,24.17
2018-03-26T17:57:36.544Z,25.30
2018-03-26T18:00:04.656Z,25.83
2018-03-26T18:02:32.809Z,28.47
2018-03-26T18:05:00.969Z,28.77
2018-03-26T18:07:29.706Z,34.53
2018-03-26T18:09:57.819Z,28.87
2018-03-26T18:12:26.003Z,27.30
2018-03-26T18:14:54.123Z,30.57
2018-03-26T18:17:26.104Z,31.90
2018-03-26T18:19:54.235Z,33.50
2018-03-26T18:22:22.951Z,32.40
2018-03-26T18:24:51.891Z,34.10
2018-03-26T18:27:20.133Z,35.20
2018-03-26T18:29:48.308Z,36.67
2018-03-26T18:32:16.502Z,36.53
2018-03-26T18:34:44.791Z,37.27
2018-03-26T18:37:13.445Z,31.17
2018-03-26T18:39:49.455Z,34.63
2018-03-26T18:42:18.595Z,33.23
2018-03-26T18:44:48.697Z,36.20
2018-03-26T18:47:17.694Z,36.70
2018-03-26T18:49:46.922Z,34.57
2018-03-26T18:52:15.042Z,32.60
2018-03-26T18:54:43.595Z,29.93
2018-03-26T18:57:13.350Z,34.00
2018-03-26T18:59:42.074Z,29.30
2018-03-26T19:02:10.274Z,32.30
2018-03-26T19:04:38.441Z,33.53
2018-03-26T19:07:10.283Z,36.57
2018-03-26T19:09:38.482Z,30.33
2018-03-26T19:12:06.626Z,31.27
2018-03-26T19:14:35.445Z,28.37
2018-03-26T19:17:03.655Z,29.83
2018-03-26T19:19:40.132Z,30.10
2018-03-26T19:22:09.020Z,33.73
2018-03-26T19:24:37.972Z,29.83
2018-03-26T19:27:06.215Z,29.30
2018-03-26T19:29:34.386Z,30.07
2018-03-26T19:32:02.537Z,31.00
2018-03-26T19:34:31.431Z,29.67
2018-03-26T19:36:59.549Z,26.07
2018-03-26T19:39:32.769Z,31.57
2018-03-26T19:42:00.942Z,35.30
2018-03-26T19:44:29.894Z,35.77
2018-03-26T19:46:58.717Z,36.40
2018-03-26T19:49:27.813Z,34.73
2018-03-26T19:51:56.011Z,35.63
2018-03-26T19:54:24.155Z,34.63
2018-03-26T19:56:53.072Z,34.60
2018-03-26T19:59:21.979Z,33.63
2018-03-26T20:01:51.054Z,35.17
2018-03-26T20:04:19.217Z,36.87
2018-03-26T20:06:47.886Z,33.83
2018-03-26T20:09:16.090Z,31.57
2018-03-26T20:11:45.054Z,35.63
2018-03-26T20:14:13.206Z,32.33
2018-03-26T20:16:41.332Z,33.37
2018-03-26T20:19:10.314Z,36.13
2018-03-26T20:21:38.432Z,33.30
2018-03-26T20:24:06.677Z,34.50
2018-03-26T20:26:35.197Z,34.93
2018-03-26T20:29:03.968Z,32.17
2018-03-26T20:31:32.108Z,29.77
2018-03-26T20:34:00.666Z,33.30
2018-03-26T20:36:28.832Z,35.50
2018-03-26T20:38:57.076Z,33.97
2018-03-26T20:41:25.218Z,34.87
2018-03-26T20:56:48.389Z,31.17
2018-03-26T20:59:16.541Z,33.33
2018-03-26T21:01:44.687Z,37.77
2018-03-26T21:04:12.831Z,36.83
2018-03-26T21:06:41.583Z,37.90
2018-03-26T21:09:09.711Z,35.47
2018-03-26T21:11:37.890Z,36.87
2018-03-26T21:14:06.005Z,36.63
2018-03-26T21:16:34.147Z,38.43
2018-03-26T21:19:02.311Z,36.90
2018-03-26T21:21:38.724Z,38.43
2018-03-26T21:24:07.712Z,37.47
2018-03-26T21:26:35.888Z,36.83
2018-03-26T21:29:04.010Z,38.93
2018-03-26T21:31:32.851Z,35.27
2018-03-26T21:34:00.973Z,36.63
2018-03-26T21:36:29.096Z,37.83
2018-03-26T21:39:01.167Z,40.00
2018-03-26T21:41:29.297Z,38.63
2018-03-26T21:43:57.808Z,37.20
2018-03-26T21:46:34.219Z,38.07
2018-03-26T21:49:02.395Z,40.00
2018-03-26T21:51:31.106Z,38.73
2018-03-26T21:53:59.250Z,35.73
2018-03-26T21:56:27.422Z,38.30
2018-03-26T21:58:59.532Z,38.37
2018-03-26T22:01:27.734Z,37.43
2018-03-26T22:03:55.967Z,37.97
2018-03-26T22:06:24.355Z,39.33
2018-03-26T22:08:52.605Z,38.43
2018-03-26T22:11:20.844Z,38.27
2018-03-26T22:13:49.015Z,38.80
2018-03-26T22:16:17.340Z,36.57
2018-03-26T22:18:45.556Z,35.87
2018-03-26T22:21:13.836Z,38.60
2018-03-26T22:23:42.050Z,38.50
2018-03-26T22:26:10.279Z,38.00
2018-03-26T22:28:39.181Z,40.37
2018-03-26T22:31:07.418Z,39.03
2018-03-26T22:33:35.625Z,37.50
2018-03-26T22:36:04.557Z,38.57
2018-03-26T22:38:32.696Z,39.30
2018-03-26T22:41:02.006Z,37.47
2018-03-26T22:43:34.947Z,36.40
2018-03-26T22:46:03.099Z,36.67
2018-03-26T22:48:37.190Z,37.50
2018-03-26T22:51:05.335Z,37.30
2018-03-26T22:53:33.490Z,35.77
2018-03-26T22:56:01.630Z,35.27
2018-03-26T22:58:34.421Z,34.83
2018-03-26T23:01:02.508Z,33.50
2018-03-26T23:03:30.627Z,36.27
2018-03-26T23:06:02.752Z,34.60
2018-03-26T23:08:31.658Z,34.10
2018-03-26T23:11:00.092Z,35.87
2018-03-26T23:13:28.827Z,35.63
2018-03-26T23:15:56.952Z,36.93
2018-03-26T23:18:25.102Z,39.73
2018-03-26T23:20:53.224Z,35.10
2018-03-26T23:23:21.428Z,37.40
2018-03-26T23:25:49.719Z,35.77
2018-03-26T23:28:17.991Z,35.83
2018-03-26T23:30:46.306Z,36.17
2018-03-26T23:33:14.676Z,33.90
2018-03-26T23:35:42.824Z,34.40
2018-03-26T23:38:11.132Z,35.53
2018-03-26T23:40:39.884Z,38.00
2018-03-26T23:43:08.016Z,36.17
2018-03-26T23:45:36.722Z,36.47
2018-03-26T23:48:05.192Z,35.03
2018-03-26T23:50:33.307Z,36.23
2018-03-26T23:53:01.434Z,36.40
2018-03-26T23:55:29.565Z,37.53
2018-03-26T23:57:57.796Z,34.33
